Airfield :
LOGIN :

Register | Disclaimer

   EN    FR    IT 

 










Legend :    VFR   Marginal VFR   IFR   Intensive IFR   Very Intensive IFR
Visi :
Ceiling :
>= 8 km
>= 3000ft
5 to 8 km
1000 to 3000 ft
1500m to 5 km
500 to 1000 ft
800 to 1500m
200 to 500 ft
< 800m
< 200 ft
Symbols :   Thunderstorms  Fog  Heavy snow  Heavy precipitations  Wind > 20 kt
SIGMETs :     Misc.  Thunderstorms  Icing  Turbulence  Mountain Waves  Volcanic Ashes






- Airport Elevation : -13 ft
- IATA code : LEY


EHLE - Lelystad

CURRENT METAR :
  • 191625Z AUTO 30006KT 260V320 9999 -RA FEW027 SCT035 BKN040 23/19 Q1013 TEMPO 7000 -SHRA SCT020CB

EXPIRED METARs :
  • 191555Z AUTO 21003KT 170V260 9999 BKN023 OVC027 23/20 Q1013 TEMPO 7000 -SHRA SCT020CB
  • 191525Z AUTO 23004KT 9999 RA OVC021 22/19 Q1013 TEMPO 7000 -SHRA SCT020CB
  • 191455Z AUTO 21006KT 9999 SCT021 BKN025 BKN033 23/20 Q1013 TEMPO 7000 -SHRA SCT020CB
  • 191425Z AUTO 22006KT 190V250 9999 SCT023 BKN026 23/19 Q1013 TEMPO 7000 -SHRA SCT020CB
  • 191355Z AUTO 26006KT 220V290 9999 BKN021 OVC024 23/19 Q1013 TEMPO 7000 -SHRA SCT020CB

TAF TAF EHLE
Valid from the 19 at 12:00 until the 20 at 18:00 UTC


191059Z 1912/2018 27009KT 9999 SCT020 BKN045
TEMPO 1912/1917 5000 SHRA BKN014 SCT018CB
BECMG 1917/1920 VRB03KT
PROB40 2001/2007 4000 MIFG
BECMG 2008/2011 27011KT
BECMG 2015/2018 24006KT



MET'MAP, your aeronautical weather chart ! - Copyright ORBIFLY December 2007 - Disclaimer

ORBIFLY MET'MAP TEAM :

Programming & Development : Alexandra Zaïnal
Original concept : Baudouin d'Aumeries
Technical & hardware support : Manuel Goepfert
Assistance : Marc-Olivier Méhu




SOURCES & CREDITS :

   NOAA